createdAt,value
2018-08-01T00:02:07.694Z,22.20
2018-08-01T00:04:35.294Z,22.20
2018-08-01T00:07:02.869Z,22.20
2018-08-01T00:09:31.457Z,22.10
2018-08-01T00:14:26.555Z,22.10
2018-08-01T00:16:54.194Z,22.10
2018-08-01T00:19:21.804Z,22.10
2018-08-01T00:21:49.892Z,22.10
2018-08-01T00:24:17.434Z,22.10
2018-08-01T00:26:46.058Z,22.10
2018-08-01T00:29:13.572Z,22.10
2018-08-01T00:31:41.182Z,22.10
2018-08-01T00:34:08.716Z,22.10
2018-08-01T00:36:36.242Z,22.10
2018-08-01T00:39:06.776Z,22.10
2018-08-01T00:41:34.328Z,22.10
2018-08-01T00:44:01.884Z,22.10
2018-08-01T00:46:29.464Z,22.00
2018-08-01T00:48:57.007Z,22.00
2018-08-01T00:51:24.559Z,21.90
2018-08-01T00:53:52.067Z,21.90
2018-08-01T00:56:20.173Z,21.90
2018-08-01T00:58:47.783Z,21.90
2018-08-01T01:01:15.341Z,21.90
2018-08-01T01:03:42.981Z,21.80
2018-08-01T01:06:10.533Z,21.80
2018-08-01T01:08:38.085Z,21.80
2018-08-01T01:11:05.693Z,21.70
2018-08-01T01:13:33.283Z,21.70
2018-08-01T01:16:01.003Z,21.70
2018-08-01T01:18:28.545Z,21.60
2018-08-01T01:20:56.305Z,21.70
2018-08-01T01:23:23.885Z,21.60
2018-08-01T01:25:51.445Z,21.60
2018-08-01T01:28:19.621Z,21.60
2018-08-01T01:30:47.155Z,21.60
2018-08-01T01:33:14.729Z,21.60
2018-08-01T01:35:42.411Z,21.60
2018-08-01T01:38:09.969Z,21.50
2018-08-01T01:40:37.581Z,21.50
2018-08-01T01:43:05.543Z,21.50
2018-08-01T01:45:33.140Z,21.50
2018-08-01T01:48:00.693Z,21.50
2018-08-01T01:52:55.698Z,21.50
2018-08-01T01:55:23.217Z,21.50
2018-08-01T01:57:51.479Z,21.40
2018-08-01T02:00:19.328Z,21.40
2018-08-01T02:02:46.870Z,21.40
2018-08-01T02:05:14.429Z,21.40
2018-08-01T02:07:41.971Z,21.40
2018-08-01T02:10:41.325Z,21.40
2018-08-01T02:13:09.985Z,21.40
2018-08-01T02:15:38.641Z,21.30
2018-08-01T02:18:06.486Z,21.20
2018-08-01T02:20:34.082Z,21.10
2018-08-01T02:23:02.171Z,21.10
2018-08-01T02:25:29.715Z,21.10
2018-08-01T02:27:57.282Z,21.10
2018-08-01T02:30:25.461Z,21.10
2018-08-01T02:32:53.791Z,21.10
2018-08-01T02:35:21.341Z,21.10
2018-08-01T02:37:48.933Z,21.00
2018-08-01T02:40:16.799Z,21.10
2018-08-01T02:42:44.652Z,21.00
2018-08-01T02:45:12.653Z,21.00
2018-08-01T02:47:40.215Z,21.10
2018-08-01T02:50:08.612Z,21.00
2018-08-01T02:55:04.006Z,20.90
2018-08-01T02:57:31.574Z,20.90
2018-08-01T02:59:59.130Z,20.90
2018-08-01T03:02:28.149Z,20.90
2018-08-01T03:04:55.734Z,20.80
2018-08-01T03:07:23.304Z,20.80
2018-08-01T03:09:51.518Z,20.70
2018-08-01T03:12:19.336Z,20.70
2018-08-01T03:14:46.968Z,20.60
2018-08-01T03:17:14.608Z,20.60
2018-08-01T03:19:42.121Z,20.60
2018-08-01T03:22:09.674Z,20.60
2018-08-01T03:24:37.262Z,20.60
2018-08-01T03:27:04.822Z,20.60
2018-08-01T03:29:32.394Z,20.50
2018-08-01T03:31:59.941Z,20.50
2018-08-01T03:34:27.593Z,20.50
2018-08-01T03:36:55.256Z,20.40
2018-08-01T03:39:22.805Z,20.40
2018-08-01T03:41:51.088Z,20.40
2018-08-01T03:44:18.740Z,20.40
2018-08-01T03:46:46.421Z,20.40
2018-08-01T03:49:13.966Z,20.30
2018-08-01T03:51:41.504Z,20.30
2018-08-01T03:54:09.974Z,20.30
2018-08-01T03:56:37.547Z,20.40
2018-08-01T03:59:05.159Z,20.40
2018-08-01T04:01:32.783Z,20.40
2018-08-01T04:04:00.305Z,20.40
2018-08-01T04:06:27.921Z,20.40
2018-08-01T04:08:56.171Z,20.40
2018-08-01T04:11:23.739Z,20.40
2018-08-01T04:13:51.272Z,20.60
2018-08-01T04:16:19.249Z,20.70
2018-08-01T04:18:46.795Z,20.80
2018-08-01T04:21:14.416Z,20.80
2018-08-01T04:23:42.009Z,20.90
2018-08-01T04:26:09.578Z,20.90
2018-08-01T04:28:37.123Z,20.90
2018-08-01T04:31:04.700Z,20.80
2018-08-01T04:35:59.721Z,20.80
2018-08-01T04:38:27.239Z,20.80
2018-08-01T04:43:22.352Z,20.80
2018-08-01T04:45:50.178Z,20.80
2018-08-01T04:48:17.698Z,20.80
2018-08-01T04:50:45.264Z,20.80
2018-08-01T04:53:12.870Z,20.80
2018-08-01T04:55:40.614Z,20.90
2018-08-01T04:58:08.201Z,21.10
2018-08-01T05:00:35.773Z,21.10
2018-08-01T05:03:03.406Z,21.10
2018-08-01T05:07:58.424Z,21.30
2018-08-01T05:10:26.086Z,21.50
2018-08-01T05:12:53.672Z,21.60
2018-08-01T05:15:21.310Z,21.70
2018-08-01T05:20:18.044Z,21.90
2018-08-01T05:22:45.608Z,22.00
2018-08-01T05:25:13.190Z,22.10
2018-08-01T05:27:40.774Z,22.30
2018-08-01T05:37:32.466Z,22.60
2018-08-01T05:40:00.025Z,22.70
2018-08-01T05:42:27.672Z,22.80
2018-08-01T05:44:55.325Z,23.00
2018-08-01T05:47:22.849Z,23.10
2018-08-01T05:49:50.417Z,23.30
2018-08-01T05:52:17.979Z,23.40
2018-08-01T05:54:45.621Z,23.50
2018-08-01T05:57:13.285Z,23.60
2018-08-01T05:59:40.765Z,23.70
2018-08-01T06:02:08.365Z,23.80
2018-08-01T06:04:35.903Z,23.90
2018-08-01T06:07:03.655Z,24.00
2018-08-01T06:09:31.237Z,24.10
2018-08-01T06:11:58.785Z,24.10
2018-08-01T06:14:26.455Z,24.20
2018-08-01T06:16:54.033Z,24.30
2018-08-01T06:19:21.599Z,24.50
2018-08-01T06:21:49.605Z,24.50
2018-08-01T06:24:17.203Z,24.60
2018-08-01T06:26:44.759Z,24.70
2018-08-01T06:29:12.299Z,24.80
2018-08-01T06:31:39.881Z,24.70
2018-08-01T06:34:07.467Z,24.80
2018-08-01T06:36:35.012Z,24.80
2018-08-01T06:39:03.991Z,24.80
2018-08-01T06:41:31.555Z,24.90
2018-08-01T06:43:59.134Z,24.90
2018-08-01T06:46:26.670Z,24.90
2018-08-01T06:48:54.215Z,25.00
2018-08-01T06:51:21.774Z,25.00
2018-08-01T06:53:49.654Z,25.00
2018-08-01T06:56:17.201Z,25.10
2018-08-01T06:58:44.756Z,25.10
2018-08-01T07:01:14.267Z,25.20
2018-08-01T07:03:41.805Z,25.20
2018-08-01T07:11:04.360Z,25.30
2018-08-01T07:13:32.130Z,25.40
2018-08-01T07:15:59.730Z,25.50
2018-08-01T07:18:27.284Z,25.50
2018-08-01T07:20:54.970Z,25.60
2018-08-01T07:23:22.564Z,25.70
2018-08-01T07:25:50.586Z,25.80
2018-08-01T07:28:18.333Z,25.90
2018-08-01T07:30:45.914Z,25.90
2018-08-01T07:33:13.472Z,26.00
2018-08-01T07:35:41.072Z,26.10
2018-08-01T07:38:08.652Z,26.20
2018-08-01T07:40:36.200Z,26.30
2018-08-01T07:43:04.138Z,26.40
2018-08-01T07:45:31.728Z,26.40
2018-08-01T07:47:59.314Z,26.50
2018-08-01T07:50:26.889Z,26.60
2018-08-01T07:52:54.578Z,26.70
2018-08-01T07:55:22.174Z,26.80
2018-08-01T07:57:50.326Z,26.90
2018-08-01T08:00:17.945Z,26.90
2018-08-01T08:02:45.715Z,27.00
2018-08-01T08:05:13.297Z,27.10
2018-08-01T08:07:40.878Z,27.20
2018-08-01T08:10:08.447Z,27.30
2018-08-01T08:12:35.963Z,27.50
2018-08-01T08:15:04.666Z,27.60
2018-08-01T08:19:59.657Z,27.80
2018-08-01T08:22:27.209Z,27.90
2018-08-01T08:24:54.749Z,28.00
2018-08-01T08:32:17.968Z,28.50
2018-08-01T08:34:45.536Z,28.60
2018-08-01T08:37:13.088Z,28.80
2018-08-01T08:42:08.155Z,28.80
2018-08-01T08:44:35.681Z,28.90
2018-08-01T08:47:03.749Z,28.90
2018-08-01T08:49:31.289Z,28.90
2018-08-01T08:51:58.817Z,29.00
2018-08-01T08:54:26.324Z,29.20
2018-08-01T08:56:53.859Z,29.30
2018-08-01T08:59:21.433Z,29.30
2018-08-01T09:01:49.230Z,29.40
2018-08-01T09:06:44.297Z,29.50
2018-08-01T09:09:11.873Z,29.50
2018-08-01T09:11:39.458Z,29.60
2018-08-01T09:14:07.018Z,29.60
2018-08-01T09:16:34.614Z,29.70
2018-08-01T09:19:02.186Z,29.80
2018-08-01T09:21:29.923Z,29.80
2018-08-01T09:23:57.529Z,29.90
2018-08-01T09:26:25.047Z,29.80
2018-08-01T09:28:52.639Z,29.90
2018-08-01T09:31:26.409Z,29.90
2018-08-01T09:33:53.965Z,30.00
2018-08-01T09:36:21.587Z,30.10
2018-08-01T09:38:49.884Z,30.20
2018-08-01T09:41:17.432Z,30.30
2018-08-01T09:43:45.011Z,30.40
2018-08-01T09:48:40.051Z,30.50
2018-08-01T09:51:07.626Z,30.50
2018-08-01T09:53:35.526Z,30.50
2018-08-01T09:56:07.614Z,30.60
2018-08-01T09:58:35.234Z,30.70
2018-08-01T10:01:13.996Z,30.90
2018-08-01T10:03:50.326Z,31.00
2018-08-01T10:06:20.580Z,31.10
2018-08-01T10:08:48.182Z,31.30
2018-08-01T10:11:15.940Z,31.40
2018-08-01T10:13:43.548Z,31.70
2018-08-01T10:16:11.174Z,31.90
2018-08-01T10:21:06.468Z,32.50
2018-08-01T10:23:33.969Z,32.70
2018-08-01T10:26:01.538Z,32.90
2018-08-01T10:28:29.130Z,33.20
2018-08-01T10:30:56.683Z,33.60
2018-08-01T10:33:24.236Z,34.00
2018-08-01T10:35:51.764Z,34.20
2018-08-01T10:40:47.462Z,34.40
2018-08-01T10:43:15.056Z,34.50
2018-08-01T10:45:42.662Z,34.70
2018-08-01T10:48:10.175Z,34.70
2018-08-01T10:50:37.748Z,35.00
2018-08-01T10:53:05.606Z,35.30
2018-08-01T10:55:33.186Z,35.60
2018-08-01T10:58:00.757Z,35.90
2018-08-01T11:00:28.366Z,36.10
2018-08-01T11:02:55.939Z,36.10
2018-08-01T11:05:23.637Z,36.10
2018-08-01T11:07:52.091Z,36.20
2018-08-01T11:10:22.016Z,36.30
2018-08-01T11:15:18.047Z,36.60
2018-08-01T11:20:13.466Z,37.20
2018-08-01T11:22:41.007Z,37.50
2018-08-01T11:25:08.820Z,37.90
2018-08-01T11:27:36.429Z,38.20
2018-08-01T11:30:04.621Z,38.60
2018-08-01T11:32:32.200Z,38.80
2018-08-01T11:34:59.750Z,38.50
2018-08-01T11:37:27.343Z,38.20
2018-08-01T11:39:54.897Z,38.20
2018-08-01T11:42:22.475Z,38.10
2018-08-01T11:44:50.331Z,38.10
2018-08-01T11:47:17.856Z,38.20
2018-08-01T11:49:45.449Z,38.30
2018-08-01T11:52:13.031Z,38.60
2018-08-01T11:54:40.639Z,38.80
2018-08-01T11:57:08.212Z,38.50
2018-08-01T12:09:25.756Z,37.40
2018-08-01T12:11:53.326Z,37.70
2018-08-01T12:14:21.526Z,38.10
2018-08-01T12:16:49.685Z,38.60
2018-08-01T12:19:17.192Z,39.10
2018-08-01T12:21:44.737Z,39.40
2018-08-01T12:24:12.339Z,39.40
2018-08-01T12:26:39.934Z,39.70
2018-08-01T12:29:07.787Z,39.80
2018-08-01T12:31:35.286Z,40.00
2018-08-01T12:34:02.880Z,39.90
2018-08-01T12:38:57.902Z,40.00
2018-08-01T12:41:25.479Z,40.40
2018-08-01T12:43:53.054Z,40.60
2018-08-01T12:46:21.560Z,40.90
2018-08-01T12:48:49.788Z,41.00
2018-08-01T12:51:17.388Z,41.10
2018-08-01T12:53:44.913Z,41.20
2018-08-01T12:56:12.441Z,41.00
2018-08-01T12:58:39.993Z,40.90
2018-08-01T13:01:07.861Z,40.90
2018-08-01T13:03:35.487Z,41.10
2018-08-01T13:06:03.109Z,41.40
2018-08-01T13:10:58.290Z,41.80
2018-08-01T13:13:25.750Z,41.90
2018-08-01T13:15:53.317Z,41.90
2018-08-01T13:18:21.635Z,42.10
2018-08-01T13:20:49.952Z,42.20
2018-08-01T13:25:44.945Z,42.20
2018-08-01T13:28:12.588Z,42.20
2018-08-01T13:30:40.190Z,42.20
2018-08-01T13:33:07.757Z,42.10
2018-08-01T13:35:35.574Z,41.90
2018-08-01T13:40:30.678Z,42.00
2018-08-01T13:42:58.214Z,42.00
2018-08-01T13:45:25.808Z,42.00
2018-08-01T13:47:53.449Z,42.10
2018-08-01T13:50:21.024Z,42.20
2018-08-01T13:52:48.589Z,42.40
2018-08-01T13:55:16.137Z,42.20
2018-08-01T14:00:11.330Z,41.90
2018-08-01T14:02:38.903Z,41.90
2018-08-01T14:05:07.261Z,41.90
2018-08-01T14:07:34.817Z,41.70
2018-08-01T14:10:02.427Z,41.60
2018-08-01T14:12:29.999Z,41.60
2018-08-01T14:14:57.573Z,41.80
2018-08-01T14:17:25.352Z,41.90
2018-08-01T14:19:52.758Z,42.10
2018-08-01T14:22:21.125Z,42.20
2018-08-01T14:24:48.728Z,42.10
2018-08-01T14:27:16.300Z,42.00
2018-08-01T14:29:43.915Z,42.10
2018-08-01T14:32:11.468Z,42.20
2018-08-01T14:34:39.028Z,42.40
2018-08-01T14:39:34.475Z,42.20
2018-08-01T14:42:02.064Z,42.30
2018-08-01T14:44:29.685Z,42.40
2018-08-01T14:46:57.332Z,42.40
2018-08-01T14:49:24.881Z,42.20
2018-08-01T14:51:52.436Z,42.10
2018-08-01T14:54:20.302Z,42.10
2018-08-01T14:56:47.895Z,42.20
2018-08-01T14:59:15.454Z,42.10
2018-08-01T15:01:43.035Z,42.10
2018-08-01T15:04:10.655Z,42.10
2018-08-01T15:06:38.264Z,42.00
2018-08-01T15:09:07.394Z,41.90
2018-08-01T15:11:34.988Z,41.80
2018-08-01T15:14:02.608Z,41.70
2018-08-01T15:16:30.218Z,41.90
2018-08-01T15:18:57.811Z,42.10
2018-08-01T15:21:25.404Z,42.20
2018-08-01T15:26:21.209Z,41.90
2018-08-01T15:31:15.842Z,41.60
2018-08-01T15:33:43.460Z,41.70
2018-08-01T15:36:11.025Z,41.70
2018-08-01T15:38:38.574Z,41.40
2018-08-01T15:41:06.827Z,41.30
2018-08-01T15:43:34.476Z,41.20
2018-08-01T15:46:02.153Z,41.20
2018-08-01T15:50:57.135Z,41.20
2018-08-01T15:53:24.678Z,41.10
2018-08-01T15:55:52.276Z,40.90
2018-08-01T15:58:19.877Z,40.80
2018-08-01T16:00:47.497Z,40.90
2018-08-01T16:03:15.060Z,41.00
2018-08-01T16:05:42.675Z,41.00
2018-08-01T16:08:10.253Z,40.90
2018-08-01T16:10:37.814Z,40.90
2018-08-01T16:13:05.487Z,40.90
2018-08-01T16:15:33.317Z,40.90
2018-08-01T16:18:01.007Z,40.90
2018-08-01T16:20:28.588Z,40.70
2018-08-01T16:22:56.441Z,40.60
2018-08-01T16:27:51.509Z,40.40
2018-08-01T16:30:19.827Z,40.10
2018-08-01T16:32:47.397Z,40.00
2018-08-01T16:35:15.019Z,39.80
2018-08-01T16:37:42.697Z,39.70
2018-08-01T16:40:11.458Z,39.60
2018-08-01T16:42:39.074Z,39.40
2018-08-01T16:45:32.700Z,39.30
2018-08-01T16:48:00.486Z,39.10
2018-08-01T16:50:28.095Z,39.00
2018-08-01T16:52:55.672Z,38.80
2018-08-01T16:55:23.262Z,38.80
2018-08-01T16:57:51.441Z,38.70
2018-08-01T17:00:19.663Z,38.70
2018-08-01T17:02:47.262Z,38.20
2018-08-01T17:05:14.798Z,37.50
2018-08-01T17:07:42.371Z,36.90
2018-08-01T17:10:09.994Z,36.40
2018-08-01T17:12:37.542Z,36.10
2018-08-01T17:17:32.636Z,35.60
2018-08-01T17:20:00.207Z,35.40
2018-08-01T17:22:28.082Z,35.20
2018-08-01T17:24:55.689Z,34.80
2018-08-01T17:27:23.244Z,34.50
2018-08-01T17:29:51.452Z,34.20
2018-08-01T17:32:19.327Z,33.90
2018-08-01T17:34:46.922Z,33.60
2018-08-01T17:37:14.482Z,33.20
2018-08-01T17:39:42.114Z,32.90
2018-08-01T17:42:09.758Z,32.80
2018-08-01T17:44:37.358Z,32.50
2018-08-01T17:47:04.986Z,32.30
2018-08-01T17:49:32.579Z,32.10
2018-08-01T17:54:27.705Z,31.80
2018-08-01T17:56:55.321Z,31.70
2018-08-01T17:59:22.937Z,31.50
2018-08-01T18:01:51.347Z,31.40
2018-08-01T18:04:19.527Z,31.30
2018-08-01T18:06:47.157Z,31.20
2018-08-01T18:09:14.711Z,31.10
2018-08-01T18:11:42.331Z,31.00
2018-08-01T18:14:09.898Z,30.90
2018-08-01T18:16:37.535Z,30.80
2018-08-01T18:19:05.198Z,30.60
2018-08-01T18:21:33.658Z,30.50
2018-08-01T18:24:01.397Z,30.40
2018-08-01T18:26:29.050Z,30.30
2018-08-01T18:31:24.424Z,30.10
2018-08-01T18:33:52.260Z,30.00
2018-08-01T18:36:20.806Z,29.80
2018-08-01T18:38:48.755Z,29.80
2018-08-01T18:41:16.337Z,29.60
2018-08-01T18:43:43.968Z,29.60
2018-08-01T18:46:11.563Z,29.40
2018-08-01T18:51:06.628Z,29.30
2018-08-01T18:53:34.379Z,29.20
2018-08-01T18:56:01.953Z,29.10
2018-08-01T18:58:29.580Z,29.00
2018-08-01T19:00:57.223Z,28.90
2018-08-01T19:03:25.337Z,28.70
2018-08-01T19:05:52.948Z,28.50
2018-08-01T19:08:21.248Z,28.30
2018-08-01T19:10:48.843Z,28.20
2018-08-01T19:13:16.502Z,28.10
2018-08-01T19:15:44.106Z,27.90
2018-08-01T19:18:11.709Z,27.70
2018-08-01T19:23:07.018Z,27.50
2018-08-01T19:25:34.732Z,27.30
2018-08-01T19:28:02.419Z,27.20
2018-08-01T19:30:30.119Z,27.10
2018-08-01T19:32:57.760Z,26.90
2018-08-01T19:35:26.245Z,26.80
2018-08-01T19:37:53.884Z,26.70
2018-08-01T19:40:21.603Z,26.60
2018-08-01T19:42:50.402Z,26.60
2018-08-01T19:45:18.054Z,26.40
2018-08-01T19:47:45.680Z,26.40
2018-08-01T19:50:13.522Z,26.30
2018-08-01T19:52:41.410Z,26.30
2018-08-01T19:55:10.528Z,26.20
2018-08-01T19:57:38.218Z,26.20
2018-08-01T20:00:05.546Z,26.20
2018-08-01T20:02:32.904Z,26.10
2018-08-01T20:05:00.588Z,26.10
2018-08-01T20:07:28.222Z,26.00
2018-08-01T20:09:55.942Z,25.90
2018-08-01T20:12:23.674Z,25.80
2018-08-01T20:14:51.948Z,25.70
2018-08-01T20:17:20.327Z,25.60
2018-08-01T20:19:48.606Z,25.60
2018-08-01T20:22:18.421Z,25.50
2018-08-01T20:24:46.594Z,25.40
2018-08-01T20:27:14.410Z,25.40
2018-08-01T20:29:42.193Z,25.30
2018-08-01T20:32:10.161Z,25.20
2018-08-01T20:34:37.823Z,25.20
2018-08-01T20:37:05.515Z,25.10
2018-08-01T20:39:33.164Z,25.00
2018-08-01T20:42:00.869Z,25.00
2018-08-01T20:44:28.537Z,24.90
2018-08-01T20:49:23.694Z,24.80
2018-08-01T20:51:51.547Z,24.80
2018-08-01T20:54:19.704Z,24.80
2018-08-01T20:56:47.283Z,24.70
2018-08-01T20:59:14.910Z,24.70
2018-08-01T21:01:42.513Z,24.70
2018-08-01T21:04:10.178Z,24.60
2018-08-01T21:06:37.777Z,24.50
2018-08-01T21:09:07.927Z,24.50
2018-08-01T21:11:35.587Z,24.40
2018-08-01T21:14:03.168Z,24.30
2018-08-01T21:16:30.963Z,24.20
2018-08-01T21:18:58.559Z,24.10
2018-08-01T21:21:26.147Z,24.00
2018-08-01T21:23:53.737Z,24.00
2018-08-01T21:26:21.573Z,24.00
2018-08-01T21:31:17.475Z,23.90
2018-08-01T21:33:45.143Z,23.90
2018-08-01T21:36:12.701Z,23.90
2018-08-01T21:38:40.297Z,23.80
2018-08-01T21:41:07.993Z,23.80
2018-08-01T21:43:35.653Z,23.70
2018-08-01T21:46:03.199Z,23.70
2018-08-01T21:48:30.813Z,23.70
2018-08-01T21:50:58.410Z,23.60
2018-08-01T21:53:25.968Z,23.60
2018-08-01T21:55:53.522Z,23.50
2018-08-01T21:58:22.000Z,23.50
2018-08-01T22:00:50.546Z,23.40
2018-08-01T22:03:18.095Z,23.40
2018-08-01T22:08:13.107Z,23.30
2018-08-01T22:10:41.033Z,23.20
2018-08-01T22:13:08.777Z,23.20
2018-08-01T22:15:36.385Z,23.20
2018-08-01T22:18:03.959Z,23.20
2018-08-01T22:20:31.567Z,23.10
2018-08-01T22:22:59.353Z,23.10
2018-08-01T22:25:27.097Z,23.00
2018-08-01T22:27:54.645Z,23.00
2018-08-01T22:30:22.426Z,22.90
2018-08-01T22:32:50.425Z,22.90
2018-08-01T22:35:17.996Z,22.80
2018-08-01T22:37:45.707Z,22.80
2018-08-01T22:40:13.301Z,22.80
2018-08-01T22:42:40.890Z,22.90
2018-08-01T22:47:35.883Z,22.80
2018-08-01T22:50:03.997Z,22.80
2018-08-01T22:52:31.623Z,22.70
2018-08-01T22:54:59.169Z,22.70
2018-08-01T22:57:26.706Z,22.70
2018-08-01T23:02:21.761Z,22.60
2018-08-01T23:04:49.337Z,22.60
2018-08-01T23:07:16.974Z,22.60
2018-08-01T23:09:44.480Z,22.50
2018-08-01T23:12:12.052Z,22.50
2018-08-01T23:14:39.574Z,22.50
2018-08-01T23:17:07.461Z,22.50
2018-08-01T23:19:35.062Z,22.50
2018-08-01T23:24:30.146Z,22.40
2018-08-01T23:26:57.718Z,22.40
2018-08-01T23:31:52.746Z,22.50
2018-08-01T23:34:21.010Z,22.50
2018-08-01T23:36:48.574Z,22.60
2018-08-01T23:39:16.134Z,22.60
2018-08-01T23:41:43.702Z,22.70
2018-08-01T23:44:11.226Z,22.70
2018-08-01T23:49:06.247Z,22.90
2018-08-01T23:51:33.808Z,23.00
2018-08-01T23:54:01.395Z,23.00
2018-08-01T23:56:28.909Z,23.00
2018-08-01T23:58:56.467Z,23.10
